KOOA/OOA METAR and TAF weather

Enter ICAO airport designator
Station Type Date Time Source
KOOA METAR 2020/02/29 02:35 UTC NOAA

KOOA 290235Z AUTO 32004KT 10SM CLR M04/M05 A3023 RMK AO2 T10391055


Station Type Date Time Source
KOOA Decoded METAR 2020/02/29 02:35 UTC NOAA

Oskaloosa, Oskaloosa Municipal Airport, IA, United States (KOOA) 41-13-34N 092-29-37W
Feb 28, 2020 - 09:35 PM EST / 2020.02.29 0235 UTC
Wind: from the NW (320 degrees) at 5 MPH (4 KT):0
Visibility: 10 mile(s):0
Sky conditions: clear
Temperature: 25.0 F (-3.9 C)
Windchill: 19 F (-7 C):1
Dew Point: 22.1 F (-5.5 C)
Relative Humidity: 88%
Pressure (altimeter): 30.23 in. Hg (1023 hPa)
ob: KOOA 290235Z AUTO 32004KT 10SM CLR M04/M05 A3023 RMK AO2 T10391055
cycle: 2

Station Type Date Time Source
KOOA TAF UTC NOAA

Error!

Example: see airport list